createdAt,value
2023-04-28T00:00:48.964Z,1068.2
2023-04-28T00:02:32.669Z,1071.1
2023-04-28T00:04:16.405Z,1070.5
2023-04-28T00:06:00.213Z,1070.3
2023-04-28T00:07:43.785Z,1069
2023-04-28T00:09:27.477Z,1067
2023-04-28T00:11:11.190Z,1065.2
2023-04-28T00:12:54.887Z,1064.7
2023-04-28T00:14:38.595Z,1068.6
2023-04-28T00:16:22.301Z,1069.6
2023-04-28T00:18:05.986Z,1070.2
2023-04-28T00:19:49.699Z,1069.8
2023-04-28T00:21:33.397Z,1067.5
2023-04-28T00:23:17.094Z,1071.7
2023-04-28T00:25:00.798Z,1077.5
2023-04-28T00:26:44.502Z,1081.2
2023-04-28T00:28:28.215Z,1078.2
2023-04-28T00:30:11.922Z,1080.2
2023-04-28T00:31:55.609Z,1078.7
2023-04-28T00:33:39.309Z,1077.7
2023-04-28T00:35:23.012Z,1081.4
2023-04-28T00:37:06.713Z,1081.5
2023-04-28T00:38:50.416Z,1080.6
2023-04-28T00:40:34.125Z,1079.1
2023-04-28T00:42:17.834Z,1077.5
2023-04-28T00:44:01.534Z,1077
2023-04-28T00:45:45.217Z,1079.8
2023-04-28T00:47:28.929Z,1081.6
2023-04-28T00:49:12.632Z,1083.6
2023-04-28T00:50:56.331Z,1086.1
2023-04-28T00:52:40.039Z,1090.4
2023-04-28T00:54:23.742Z,1096.4
2023-04-28T00:56:07.440Z,1097.6
2023-04-28T00:57:51.145Z,1097.4
2023-04-28T00:59:34.852Z,1100.2
2023-04-28T01:01:18.571Z,1103.3
2023-04-28T01:03:02.263Z,1106.3
2023-04-28T01:04:45.951Z,1107.2
2023-04-28T01:06:29.655Z,1101.2
2023-04-28T01:08:13.361Z,1100.5
2023-04-28T01:09:57.079Z,1096.2
2023-04-28T01:11:40.779Z,1095.2
2023-04-28T01:13:24.473Z,1093.4
2023-04-28T01:15:08.185Z,1094.5
2023-04-28T01:16:51.877Z,1090.1
2023-04-28T01:18:35.580Z,1088.1
2023-04-28T01:20:19.301Z,1089.6
2023-04-28T01:22:02.992Z,1093.2
2023-04-28T01:23:46.683Z,1096.4
2023-04-28T01:25:30.392Z,1098.8
2023-04-28T01:27:14.101Z,1100.9
2023-04-28T01:28:57.796Z,1108.6
2023-04-28T01:30:41.498Z,1106.5
2023-04-28T01:32:25.204Z,1103.7
2023-04-28T01:34:08.892Z,1104.3
2023-04-28T01:35:52.612Z,1105.2
2023-04-28T01:37:36.300Z,1104.2
2023-04-28T01:39:20.008Z,1104.4
2023-04-28T01:41:03.726Z,1106.8
2023-04-28T01:42:47.422Z,1108.9
2023-04-28T01:44:31.129Z,1110.8
2023-04-28T01:46:14.874Z,1110.9
2023-04-28T01:47:58.517Z,1110.9
2023-04-28T01:49:42.233Z,1109.5
2023-04-28T01:51:25.924Z,1109.7
2023-04-28T01:53:09.631Z,1110.3
2023-04-28T01:54:53.351Z,1108.6
2023-04-28T01:56:37.031Z,1105.9
2023-04-28T01:58:20.743Z,1104.6
2023-04-28T02:00:04.449Z,1106.6
2023-04-28T02:01:48.140Z,1107.3
2023-04-28T02:03:31.850Z,1105.9
2023-04-28T02:05:15.614Z,1103
2023-04-28T02:06:59.254Z,1102.9
2023-04-28T02:08:42.981Z,1103.9
2023-04-28T02:10:26.649Z,1105
2023-04-28T02:12:10.380Z,1107.4
2023-04-28T02:13:54.061Z,1107.7
2023-04-28T02:15:37.769Z,1108.6
2023-04-28T02:17:21.465Z,1113.5
2023-04-28T02:19:05.173Z,1113.2
2023-04-28T02:20:48.883Z,1114.5
2023-04-28T02:22:32.575Z,1117.5
2023-04-28T02:24:16.276Z,1122.6
2023-04-28T02:25:59.979Z,1124.2
2023-04-28T02:27:43.685Z,1129.3
2023-04-28T02:29:27.384Z,1125.5
2023-04-28T02:31:11.095Z,1121.6
2023-04-28T02:32:54.788Z,1124.4
2023-04-28T02:34:38.485Z,1126.7
2023-04-28T02:36:22.194Z,1125
2023-04-28T02:41:33.320Z,1128.7
2023-04-28T02:43:17.026Z,1132.9
2023-04-28T02:45:00.716Z,1135.5
2023-04-28T02:46:44.408Z,1130.8
2023-04-28T02:48:28.118Z,1126.4
2023-04-28T02:50:11.820Z,1114
2023-04-28T02:51:55.529Z,1113.1
2023-04-28T02:53:39.228Z,1114
2023-04-28T02:55:22.925Z,1113.1
2023-04-28T02:58:50.342Z,1107.8
2023-04-28T03:00:34.033Z,1103.9
2023-04-28T03:04:01.441Z,1100
2023-04-28T03:05:45.140Z,1100.7
2023-04-28T03:07:28.843Z,1100.7
2023-04-28T03:09:12.544Z,1096.1
2023-04-28T03:10:56.243Z,1098.1
2023-04-28T03:14:23.652Z,1094.8
2023-04-28T03:16:07.358Z,1096
2023-04-28T03:17:51.077Z,1098.8
2023-04-28T03:19:34.762Z,1102.6
2023-04-28T03:21:18.469Z,1105.2
2023-04-28T03:23:02.168Z,1106.1
2023-04-28T03:24:45.863Z,1103.8
2023-04-28T03:26:29.565Z,1102
2023-04-28T03:28:13.301Z,1104.5
2023-04-28T03:29:56.975Z,1104.5
2023-04-28T03:31:40.673Z,1101.1
2023-04-28T03:33:24.379Z,1101.5
2023-04-28T03:35:08.078Z,1099.6
2023-04-28T03:36:51.797Z,1096.5
2023-04-28T03:38:35.488Z,1095.7
2023-04-28T03:40:19.209Z,1093.8
2023-04-28T03:42:02.898Z,1089.1
2023-04-28T03:43:46.598Z,1088.9
2023-04-28T03:45:30.304Z,1090.2
2023-04-28T03:47:14.017Z,1089.6
2023-04-28T03:48:57.716Z,1088.8
2023-04-28T03:50:41.413Z,1090.4
2023-04-28T03:52:25.117Z,1085.5
2023-04-28T03:54:08.815Z,1082.6
2023-04-28T03:55:52.552Z,1080
2023-04-28T03:57:36.215Z,1082.5
2023-04-28T03:59:19.932Z,1080.2
2023-04-28T04:01:03.638Z,1078.7
2023-04-28T04:02:47.338Z,1078.2
2023-04-28T04:04:31.051Z,1078.7
2023-04-28T04:06:14.739Z,1077.1
2023-04-28T04:07:58.478Z,1078.9
2023-04-28T04:09:42.159Z,1076.2
2023-04-28T04:11:25.864Z,1075.2
2023-04-28T04:13:09.549Z,1072.5
2023-04-28T04:14:53.264Z,1072.9
2023-04-28T04:16:36.955Z,1073.5
2023-04-28T04:18:20.665Z,1071
2023-04-28T04:21:48.079Z,1071
2023-04-28T04:23:31.786Z,1071
2023-04-28T04:25:15.465Z,1071.8
2023-04-28T04:26:59.177Z,1073.1
2023-04-28T04:28:42.881Z,1074.1
2023-04-28T04:30:26.585Z,1068.6
2023-04-28T04:32:10.288Z,1067.7
2023-04-28T04:33:53.993Z,1068.8
2023-04-28T04:35:37.689Z,1070
2023-04-28T04:37:21.392Z,1069
2023-04-28T04:39:05.091Z,1066
2023-04-28T04:40:48.793Z,1062.6
2023-04-28T04:42:32.501Z,1062.5
2023-04-28T04:44:16.210Z,1065.4
2023-04-28T04:45:59.906Z,1069.4
2023-04-28T04:47:43.637Z,1072.4
2023-04-28T04:49:27.317Z,1072.3
2023-04-28T04:51:11.053Z,1070.2
2023-04-28T04:52:54.709Z,1071.7
2023-04-28T04:54:38.421Z,1070
2023-04-28T04:56:22.116Z,1073.6
2023-04-28T04:58:05.809Z,1072.6
2023-04-28T05:01:33.227Z,1320.9
2023-04-28T05:03:16.918Z,1352.8
2023-04-28T05:05:00.628Z,1309
2023-04-28T05:06:44.345Z,1258.8
2023-04-28T05:08:28.045Z,1256.2
2023-04-28T05:10:11.738Z,1259.7
2023-04-28T05:11:55.439Z,1279.5
2023-04-28T05:13:39.152Z,1362.2
2023-04-28T05:15:22.854Z,1363.5
2023-04-28T05:17:06.541Z,1321.5
2023-04-28T05:18:50.255Z,1329.5
2023-04-28T05:20:33.955Z,1364
2023-04-28T05:22:17.642Z,1364.9
2023-04-28T05:24:01.363Z,1369.8
2023-04-28T05:25:45.066Z,1359.2
2023-04-28T05:27:28.768Z,1361.3
2023-04-28T05:29:12.476Z,1363.2
2023-04-28T05:30:56.172Z,1357.6
2023-04-28T05:32:39.882Z,1354.1
2023-04-28T05:34:23.587Z,1353
2023-04-28T05:36:07.279Z,1352.3
2023-04-28T05:37:50.983Z,1352.5
2023-04-28T05:39:34.686Z,1355.8
2023-04-28T05:41:18.385Z,1350.9
2023-04-28T05:43:02.122Z,1343.6
2023-04-28T05:44:45.788Z,1345.2
2023-04-28T05:46:29.495Z,1344.7
2023-04-28T05:48:13.202Z,1338.7
2023-04-28T05:49:56.898Z,1334.7
2023-04-28T05:51:40.606Z,1330.5
2023-04-28T05:53:24.307Z,1324.1
2023-04-28T05:55:08.006Z,1317
2023-04-28T05:56:51.713Z,1307.3
2023-04-28T05:58:35.405Z,1301
2023-04-28T06:00:19.121Z,1297.3
2023-04-28T06:03:46.516Z,1255.4
2023-04-28T06:05:30.242Z,1239.3
2023-04-28T06:07:13.922Z,1231.8
2023-04-28T06:08:57.637Z,1224.8
2023-04-28T06:10:41.328Z,1216.8
2023-04-28T06:12:25.031Z,1210.9
2023-04-28T06:14:08.740Z,1210.5
2023-04-28T06:15:52.444Z,1209.5
2023-04-28T06:17:36.131Z,1207.4
2023-04-28T06:19:19.854Z,1208
2023-04-28T06:21:03.642Z,1208.8
2023-04-28T06:22:47.265Z,1206.8
2023-04-28T06:24:31.111Z,1195.1
2023-04-28T06:26:14.658Z,1193.6
2023-04-28T06:27:58.375Z,1186.8
2023-04-28T06:29:42.062Z,1182.9
2023-04-28T06:31:25.764Z,1179.7
2023-04-28T06:33:09.462Z,1173.9
2023-04-28T06:34:53.161Z,1174.8
2023-04-28T06:36:36.855Z,1180
2023-04-28T06:38:20.564Z,1180.6
2023-04-28T06:40:04.303Z,1184.3
2023-04-28T06:41:47.969Z,1180.2
2023-04-28T06:43:31.682Z,1177.2
2023-04-28T06:45:15.362Z,1168.1
2023-04-28T06:46:59.083Z,1165.4
2023-04-28T06:48:42.783Z,1169.5
2023-04-28T06:50:26.481Z,1166.6
2023-04-28T06:52:10.182Z,1163
2023-04-28T06:53:53.889Z,1159.7
2023-04-28T06:55:37.620Z,1156.5
2023-04-28T06:57:21.286Z,1158.2
2023-04-28T06:59:04.984Z,1157.8
2023-04-28T07:00:48.701Z,1155.1
2023-04-28T07:02:32.406Z,1150.1
2023-04-28T07:04:16.104Z,1150
2023-04-28T07:05:59.836Z,1196.7
2023-04-28T07:07:43.550Z,1213.6
2023-04-28T07:09:27.230Z,1242.8
2023-04-28T07:11:10.918Z,1248.4
2023-04-28T07:12:54.624Z,1251
2023-04-28T07:14:38.350Z,1255.6
2023-04-28T07:16:22.030Z,1250.9
2023-04-28T07:18:05.732Z,1243.6
2023-04-28T07:19:49.430Z,1232.3
2023-04-28T07:21:33.134Z,1230.9
2023-04-28T07:23:16.828Z,1234.6
2023-04-28T07:25:00.678Z,1233.9
2023-04-28T07:26:44.240Z,1229
2023-04-28T07:28:27.970Z,1228.6
2023-04-28T07:30:11.639Z,1222.4
2023-04-28T07:31:55.337Z,1215.4
2023-04-28T07:33:39.046Z,1210.6
2023-04-28T07:35:22.865Z,1188.7
2023-04-28T07:37:06.680Z,1175.6
2023-04-28T07:38:50.151Z,1174.7
2023-04-28T07:40:33.858Z,1171.9
2023-04-28T07:42:17.606Z,1174.5
2023-04-28T07:44:01.252Z,1179.9
2023-04-28T07:47:28.685Z,1234.1
2023-04-28T07:49:12.364Z,1231.4
2023-04-28T07:50:56.082Z,1223.2
2023-04-28T07:52:39.772Z,1218.8
2023-04-28T07:54:23.471Z,1219.5
2023-04-28T07:56:07.222Z,1220.4
2023-04-28T07:57:50.873Z,1217.8
2023-04-28T07:59:34.568Z,1220.9
2023-04-28T08:01:18.351Z,1221.5
2023-04-28T08:03:02.001Z,1217.1
2023-04-28T08:04:45.683Z,1209.5
2023-04-28T08:06:29.384Z,1200.5
2023-04-28T08:08:13.092Z,1191.9
2023-04-28T08:09:56.793Z,1185.9
2023-04-28T08:11:40.577Z,1174.4
2023-04-28T08:13:24.186Z,1168.4
2023-04-28T08:15:07.890Z,1158.9
2023-04-28T08:16:51.604Z,1153.6
2023-04-28T08:18:35.291Z,1152.5
2023-04-28T08:20:19.014Z,1143.7
2023-04-28T08:22:02.701Z,1139.5
2023-04-28T08:23:46.433Z,1133
2023-04-28T08:25:30.131Z,1132.3
2023-04-28T08:27:13.812Z,1134.1
2023-04-28T08:28:57.511Z,1130.4
2023-04-28T08:30:41.218Z,1126.7
2023-04-28T08:32:24.931Z,1127.4
2023-04-28T08:34:08.641Z,1127.2
2023-04-28T08:35:52.313Z,1127.7
2023-04-28T08:37:36.019Z,1126.5
2023-04-28T08:39:19.727Z,1124.6
2023-04-28T08:41:03.425Z,1124.6
2023-04-28T08:42:47.129Z,1124.3
2023-04-28T08:44:30.832Z,1119.9
2023-04-28T08:46:14.563Z,1114
2023-04-28T08:47:58.235Z,1111.4
2023-04-28T08:49:41.939Z,1107.8
2023-04-28T08:51:25.695Z,1106.2
2023-04-28T08:53:09.423Z,1103.5
2023-04-28T08:54:53.157Z,1100.2
2023-04-28T08:56:36.953Z,1092.2
2023-04-28T08:58:20.620Z,1083.6
2023-04-28T09:00:04.312Z,1081.3
2023-04-28T09:01:48.024Z,1080.2
2023-04-28T09:03:31.731Z,1076.5
2023-04-28T09:05:15.431Z,1075.6
2023-04-28T09:06:58.971Z,1073.4
2023-04-28T09:08:42.654Z,1076
2023-04-28T09:10:26.491Z,1086.1
2023-04-28T09:12:10.201Z,1092.9
2023-04-28T09:13:53.834Z,1096.6
2023-04-28T09:15:37.467Z,1094.8
2023-04-28T09:17:21.252Z,1096.3
2023-04-28T09:19:04.878Z,1095.6
2023-04-28T09:20:48.637Z,1091.1
2023-04-28T09:22:32.287Z,1088.6
2023-04-28T09:24:16.075Z,1082.5
2023-04-28T09:25:59.722Z,1082
2023-04-28T09:27:43.490Z,1083.2
2023-04-28T09:29:27.149Z,1081.5
2023-04-28T09:31:10.828Z,1080.6
2023-04-28T09:32:54.500Z,1178.5
2023-04-28T09:34:38.223Z,1258.5
2023-04-28T09:36:21.909Z,1261
2023-04-28T09:38:05.741Z,1265.9
2023-04-28T09:39:49.313Z,1265.1
2023-04-28T09:41:33.147Z,1254.3
2023-04-28T09:45:00.460Z,1250.9
2023-04-28T09:46:44.116Z,1248.7
2023-04-28T09:48:27.832Z,1243.3
2023-04-28T09:50:11.538Z,1244.8
2023-04-28T09:53:38.947Z,1249.2
2023-04-28T09:55:22.680Z,1235.3
2023-04-28T09:57:06.352Z,1209.2
2023-04-28T09:58:50.044Z,1198.5
2023-04-28T10:00:33.736Z,1197.1
2023-04-28T10:02:17.446Z,1191.5
2023-04-28T10:04:01.207Z,1184.3
2023-04-28T10:05:44.854Z,1181
2023-04-28T10:07:28.558Z,1179.4
2023-04-28T10:09:12.257Z,1179.2
2023-04-28T10:10:55.956Z,1175.1
2023-04-28T10:12:39.665Z,1174.6
2023-04-28T10:14:23.443Z,1174
2023-04-28T10:16:07.079Z,1174.5
2023-04-28T10:17:50.819Z,1169.4
2023-04-28T10:19:34.463Z,1163.3
2023-04-28T10:21:18.226Z,1171.7
2023-04-28T10:23:01.904Z,1167.7
2023-04-28T10:24:45.581Z,1185.9
2023-04-28T10:26:29.291Z,1239
2023-04-28T10:28:12.997Z,1232.2
2023-04-28T10:29:56.688Z,1232.1
2023-04-28T10:31:40.475Z,1232.6
2023-04-28T10:33:24.089Z,1226
2023-04-28T10:35:07.867Z,1220.5
2023-04-28T10:36:51.562Z,1218.3
2023-04-28T10:38:35.313Z,1211.2
2023-04-28T10:40:18.916Z,1202.6
2023-04-28T10:42:02.618Z,1200.6
2023-04-28T10:43:46.449Z,1204.4
2023-04-28T10:45:30.019Z,1206.6
2023-04-28T10:47:13.777Z,1208.4
2023-04-28T10:48:57.406Z,1211.7
2023-04-28T10:50:41.131Z,1222
2023-04-28T10:52:24.821Z,1234.2
2023-04-28T10:54:08.555Z,1237
2023-04-28T10:55:52.230Z,1235.4
2023-04-28T10:57:35.938Z,1233.8
2023-04-28T10:59:19.658Z,1252
2023-04-28T11:01:03.371Z,1241.2
2023-04-28T11:02:47.048Z,1231.9
2023-04-28T11:04:30.749Z,1219.4
2023-04-28T11:06:14.446Z,1204.6
2023-04-28T11:07:58.147Z,1189.9
2023-04-28T11:09:41.852Z,1191.8
2023-04-28T11:11:25.616Z,1193.3
2023-04-28T11:13:09.256Z,1195.8
2023-04-28T11:14:52.955Z,1200
2023-04-28T11:16:36.701Z,1205.5
2023-04-28T11:18:20.364Z,1207.7
2023-04-28T11:20:04.060Z,1208.4
2023-04-28T11:21:47.758Z,1211.1
2023-04-28T11:23:31.469Z,1211.8
2023-04-28T11:25:15.208Z,1209.2
2023-04-28T11:26:58.866Z,1210.7
2023-04-28T11:28:42.564Z,1208.7
2023-04-28T11:30:26.279Z,1206.7
2023-04-28T11:32:10.033Z,1205.5
2023-04-28T11:33:53.682Z,1204.4
2023-04-28T11:35:37.435Z,1200.5
2023-04-28T11:37:21.096Z,1198.3
2023-04-28T11:39:04.899Z,1196.7
2023-04-28T11:40:48.665Z,1199.7
2023-04-28T11:42:32.324Z,1199.4
2023-04-28T11:44:15.905Z,1197.8
2023-04-28T11:45:59.842Z,1202
2023-04-28T11:47:43.303Z,1205
2023-04-28T11:49:27.162Z,1208.2
2023-04-28T11:51:10.876Z,1206
2023-04-28T11:52:54.436Z,1200.1
2023-04-28T11:54:38.170Z,1201.1
2023-04-28T11:56:22.021Z,1201.8
2023-04-28T11:58:05.538Z,1202.2
2023-04-28T11:59:49.280Z,1202
2023-04-28T12:01:32.948Z,1193.9
2023-04-28T12:03:16.722Z,1191.9
2023-04-28T12:05:00.430Z,1190.9
2023-04-28T12:06:44.034Z,1189.4
2023-04-28T12:08:27.744Z,1189.1
2023-04-28T12:10:11.416Z,1191.3
2023-04-28T12:11:55.162Z,1188.3
2023-04-28T12:13:38.898Z,1185
2023-04-28T12:15:22.697Z,1183.7
2023-04-28T12:17:06.356Z,1183.9
2023-04-28T12:18:49.957Z,1184.3
2023-04-28T12:20:33.653Z,1186.5
2023-04-28T12:22:17.356Z,1183.7
2023-04-28T12:24:01.079Z,1180.3
2023-04-28T12:25:44.856Z,1178.2
2023-04-28T12:27:28.473Z,1181.9
2023-04-28T12:29:12.174Z,1182.1
2023-04-28T12:30:55.866Z,1177.8
2023-04-28T12:32:39.586Z,1177.2
2023-04-28T12:34:23.267Z,1176.8
2023-04-28T12:36:06.974Z,1179.7
2023-04-28T12:37:50.675Z,1192.8
2023-04-28T12:39:34.427Z,1192.1
2023-04-28T12:41:18.089Z,1188.4
2023-04-28T12:43:01.812Z,1188
2023-04-28T12:44:45.510Z,1191.2
2023-04-28T12:46:29.192Z,1196.5
2023-04-28T12:48:12.934Z,1196.7
2023-04-28T12:49:56.618Z,1201.1
2023-04-28T12:51:40.296Z,1206.5
2023-04-28T12:53:24.000Z,1214.9
2023-04-28T12:55:07.719Z,1221.5
2023-04-28T12:56:51.446Z,1227.5
2023-04-28T12:58:35.106Z,1233.3
2023-04-28T13:00:18.816Z,1236
2023-04-28T13:02:02.516Z,1235.4
2023-04-28T13:03:46.219Z,1244.6
2023-04-28T13:05:29.916Z,1251.4
2023-04-28T13:07:13.643Z,1256.3
2023-04-28T13:08:57.369Z,1253.6
2023-04-28T13:10:41.178Z,1255.8
2023-04-28T13:12:24.719Z,1258.9
2023-04-28T13:14:08.440Z,1265.1
2023-04-28T13:15:52.133Z,1266.8
2023-04-28T13:17:35.834Z,1270.5
2023-04-28T13:19:19.540Z,1271.1
2023-04-28T13:21:03.266Z,1270.6
2023-04-28T13:22:46.956Z,1266.8
2023-04-28T13:24:30.637Z,1267
2023-04-28T13:26:14.358Z,1270.4
2023-04-28T13:27:58.055Z,1271.3
2023-04-28T13:29:41.790Z,1270.9
2023-04-28T13:31:25.453Z,1272.3
2023-04-28T13:33:09.159Z,1271
2023-04-28T13:34:52.855Z,1272.2
2023-04-28T13:36:36.556Z,1269.9
2023-04-28T13:38:20.278Z,1272.3
2023-04-28T13:40:04.103Z,1290.4
2023-04-28T13:41:47.711Z,1426.9
2023-04-28T13:43:31.365Z,1452.4
2023-04-28T13:45:15.072Z,1371.9
2023-04-28T13:46:58.771Z,1350.4
2023-04-28T13:48:42.484Z,1332.4
2023-04-28T13:50:26.170Z,1323.6
2023-04-28T13:52:09.880Z,1323.7
2023-04-28T13:53:53.576Z,1325.1
2023-04-28T13:55:37.285Z,1328
2023-04-28T13:57:20.980Z,1323.6
2023-04-28T13:59:04.709Z,1320.4
2023-04-28T14:00:48.380Z,1321.8
2023-04-28T14:02:32.088Z,1328.3
2023-04-28T14:04:15.828Z,1330.6
2023-04-28T14:05:59.493Z,1331.6
2023-04-28T14:07:43.186Z,1332.7
2023-04-28T14:09:26.921Z,1331.8
2023-04-28T14:11:10.598Z,1333.4
2023-04-28T14:12:54.303Z,1331.4
2023-04-28T14:14:38.001Z,1323.7
2023-04-28T14:16:21.704Z,1319.2
2023-04-28T14:18:05.426Z,1312.2
2023-04-28T14:19:49.119Z,1310.5
2023-04-28T14:21:32.815Z,1313.1
2023-04-28T14:23:16.570Z,1313.1
2023-04-28T14:25:00.232Z,1314
2023-04-28T14:26:43.922Z,1312.1
2023-04-28T14:28:27.651Z,1310.7
2023-04-28T14:30:11.338Z,1310.8
2023-04-28T14:31:55.029Z,1309.4
2023-04-28T14:35:22.438Z,1312.6
2023-04-28T14:37:06.133Z,1311.5
2023-04-28T14:38:49.835Z,1308
2023-04-28T14:40:33.535Z,1302.5
2023-04-28T14:42:17.240Z,1299.9
2023-04-28T14:44:00.980Z,1295.4
2023-04-28T14:45:44.655Z,1289.3
2023-04-28T14:47:28.356Z,1286.6
2023-04-28T14:49:12.073Z,1424
2023-04-28T14:50:55.772Z,1448.9
2023-04-28T14:52:39.534Z,1454.2
2023-04-28T14:54:23.166Z,1464.2
2023-04-28T14:56:06.875Z,1485.2
2023-04-28T14:57:50.588Z,1507.2
2023-04-28T14:59:34.297Z,1505.8
2023-04-28T15:01:18.112Z,1495.5
2023-04-28T15:03:01.841Z,1487.3
2023-04-28T15:04:45.380Z,1471.7
2023-04-28T15:06:29.232Z,1458.6
2023-04-28T15:08:12.791Z,1449.2
2023-04-28T15:09:56.513Z,1444.3
2023-04-28T15:11:40.286Z,1436.4
2023-04-28T15:13:23.902Z,1427.4
2023-04-28T15:15:07.622Z,1430.4
2023-04-28T15:16:51.298Z,1425.9
2023-04-28T15:18:34.992Z,1419.4
2023-04-28T15:20:18.715Z,1416.1
2023-04-28T15:22:02.400Z,1406.5
2023-04-28T15:23:46.125Z,1401.8
2023-04-28T15:25:29.834Z,1399.6
2023-04-28T15:27:13.614Z,1401.7
2023-04-28T15:28:57.214Z,1399
2023-04-28T15:30:40.921Z,1388.6
2023-04-28T15:32:24.667Z,1387.9
2023-04-28T15:34:08.319Z,1383.5
2023-04-28T15:35:52.060Z,1376.4
2023-04-28T15:37:35.728Z,1370.5
2023-04-28T15:39:19.488Z,1367.7
2023-04-28T15:41:03.143Z,1369.1
2023-04-28T15:42:46.893Z,1364
2023-04-28T15:44:30.542Z,1363.4
2023-04-28T15:46:14.248Z,1369.2
2023-04-28T15:47:57.942Z,1371.2
2023-04-28T15:49:41.646Z,1366.7
2023-04-28T15:51:25.351Z,1366.3
2023-04-28T15:53:09.063Z,1365.4
2023-04-28T15:54:52.747Z,1358.5
2023-04-28T15:56:36.462Z,1354.8
2023-04-28T15:58:20.150Z,1343.5
2023-04-28T16:00:03.864Z,1329.9
2023-04-28T16:01:47.567Z,1320.4
2023-04-28T16:03:31.259Z,1324.7
2023-04-28T16:05:15.012Z,1330.2
2023-04-28T16:06:58.674Z,1336.8
2023-04-28T16:08:42.387Z,1349.6
2023-04-28T16:10:26.080Z,1353.1
2023-04-28T16:12:09.810Z,1350.9
2023-04-28T16:13:53.483Z,1361.3
2023-04-28T16:15:37.180Z,1370.3
2023-04-28T16:17:20.888Z,1376.8
2023-04-28T16:19:04.591Z,1372.5
2023-04-28T16:20:48.295Z,1367.3
2023-04-28T16:22:31.990Z,1365.6
2023-04-28T16:24:15.728Z,1362.4
2023-04-28T16:25:59.413Z,1363.7
2023-04-28T16:27:43.134Z,1370.3
2023-04-28T16:29:26.818Z,1354.4
2023-04-28T16:31:10.510Z,1336.8
2023-04-28T16:32:54.211Z,1333.2
2023-04-28T16:34:37.917Z,1327.3
2023-04-28T16:36:21.629Z,1324.6
2023-04-28T16:38:05.313Z,1320.4
2023-04-28T16:39:49.026Z,1318
2023-04-28T16:41:32.729Z,1311.5
2023-04-28T16:43:16.438Z,1312.3
2023-04-28T16:45:00.134Z,1305.7
2023-04-28T16:46:43.834Z,1300.7
2023-04-28T16:48:27.580Z,1299
2023-04-28T16:50:11.246Z,1292.8
2023-04-28T16:51:54.951Z,1283.8
2023-04-28T16:53:38.662Z,1277.9
2023-04-28T16:55:22.355Z,1280.3
2023-04-28T16:57:06.242Z,1277.6
2023-04-28T16:58:49.755Z,1275.5
2023-04-28T17:00:33.488Z,1264.4
2023-04-28T17:02:17.169Z,1253.7
2023-04-28T17:04:00.866Z,1250.9
2023-04-28T17:05:44.569Z,1248
2023-04-28T17:07:28.275Z,1247.4
2023-04-28T17:09:11.982Z,1248.9
2023-04-28T17:10:55.692Z,1246.6
2023-04-28T17:12:39.416Z,1242.1
2023-04-28T17:14:23.087Z,1238.2
2023-04-28T17:16:06.788Z,1237.7
2023-04-28T17:17:50.483Z,1240
2023-04-28T17:19:34.191Z,1235.7
2023-04-28T17:23:01.590Z,1232.1
2023-04-28T17:24:45.296Z,1232.6
2023-04-28T17:26:29.003Z,1230.6
2023-04-28T17:28:12.698Z,1228.2
2023-04-28T17:29:56.411Z,1226.5
2023-04-28T17:31:40.103Z,1223.1
2023-04-28T17:35:07.513Z,1196.4
2023-04-28T17:36:51.211Z,1197.8
2023-04-28T17:38:34.922Z,1196.7
2023-04-28T17:40:18.613Z,1198.1
2023-04-28T17:42:02.315Z,1198.8
2023-04-28T17:43:46.018Z,1198.2
2023-04-28T17:45:29.722Z,1197.1
2023-04-28T17:47:13.442Z,1193.8
2023-04-28T17:48:57.135Z,1193
2023-04-28T17:50:40.841Z,1189.5
2023-04-28T17:52:24.530Z,1186
2023-04-28T17:54:08.292Z,1185.8
2023-04-28T17:55:51.931Z,1181.4
2023-04-28T17:57:35.635Z,1176.9
2023-04-28T17:59:19.342Z,1169.9
2023-04-28T18:01:03.065Z,1168.5
2023-04-28T18:02:46.756Z,1169.2
2023-04-28T18:04:30.442Z,1166.6
2023-04-28T18:06:14.156Z,1161.4
2023-04-28T18:07:57.853Z,1153.6
2023-04-28T18:09:41.554Z,1149.3
2023-04-28T18:11:25.272Z,1146.6
2023-04-28T18:13:08.962Z,1143.4
2023-04-28T18:14:52.658Z,1143.5
2023-04-28T18:16:36.370Z,1142.8
2023-04-28T18:18:20.063Z,1143.4
2023-04-28T18:20:03.807Z,1142.6
2023-04-28T18:21:47.493Z,1139.1
2023-04-28T18:23:31.165Z,1136.3
2023-04-28T18:25:14.882Z,1136.4
2023-04-28T18:26:58.592Z,1137.8
2023-04-28T18:28:42.273Z,1136.2
2023-04-28T18:30:25.979Z,1131.1
2023-04-28T18:32:09.681Z,1126.5
2023-04-28T18:33:53.445Z,1123.7
2023-04-28T18:35:37.352Z,1124
2023-04-28T18:37:20.791Z,1123.9
2023-04-28T18:39:04.647Z,1121.3
2023-04-28T18:40:48.346Z,1108.2
2023-04-28T18:42:32.114Z,1101.8
2023-04-28T18:44:15.805Z,1098.3
2023-04-28T18:45:59.419Z,1096.9
2023-04-28T18:47:43.007Z,1099.8
2023-04-28T18:49:26.711Z,1100.4
2023-04-28T18:51:10.408Z,1101.8
2023-04-28T18:52:54.120Z,1103.8
2023-04-28T18:54:37.837Z,1100.7
2023-04-28T18:56:21.528Z,1098
2023-04-28T18:58:05.231Z,1089.4
2023-04-28T18:59:48.932Z,1079.7
2023-04-28T19:01:32.634Z,1077.6
2023-04-28T19:03:16.345Z,1076.2
2023-04-28T19:05:00.064Z,1067.5
2023-04-28T19:06:43.740Z,1064.2
2023-04-28T19:08:27.449Z,1062.2
2023-04-28T19:10:11.142Z,1063.4
2023-04-28T19:11:54.867Z,1060.2
2023-04-28T19:13:38.561Z,1062.4
2023-04-28T19:15:22.251Z,1059.3
2023-04-28T19:17:05.951Z,1053.8
2023-04-28T19:18:49.654Z,1050
2023-04-28T19:20:33.359Z,1044.6
2023-04-28T19:22:17.068Z,1047.2
2023-04-28T19:24:00.764Z,1047.4
2023-04-28T19:25:44.469Z,1046.3
2023-04-28T19:27:28.175Z,1043.6
2023-04-28T19:29:11.866Z,1042.3
2023-04-28T19:30:55.579Z,1043.1
2023-04-28T19:32:39.287Z,1039.3
2023-04-28T19:34:22.985Z,1032.5
2023-04-28T19:36:06.689Z,1025.6
2023-04-28T19:37:50.388Z,1029.7
2023-04-28T19:39:34.111Z,1031.2
2023-04-28T19:41:17.804Z,1030
2023-04-28T19:43:01.481Z,1025.5
2023-04-28T19:44:45.194Z,1022.4
2023-04-28T19:46:28.892Z,1021.1
2023-04-28T19:48:12.597Z,1020.1
2023-04-28T19:49:56.306Z,1019
2023-04-28T19:51:40.017Z,1018
2023-04-28T19:53:23.717Z,1017.6
2023-04-28T19:55:07.410Z,1016.4
2023-04-28T19:56:51.116Z,1015.5
2023-04-28T19:58:34.812Z,1011.8
2023-04-28T20:00:18.522Z,1009.9
2023-04-28T20:02:02.221Z,1009.1
2023-04-28T20:03:45.922Z,1008.1
2023-04-28T20:05:29.621Z,1008
2023-04-28T20:07:13.333Z,1001.9
2023-04-28T20:08:57.043Z,999.1
2023-04-28T20:10:40.725Z,994.8
2023-04-28T20:12:24.439Z,992.8
2023-04-28T20:14:08.139Z,994.7
2023-04-28T20:15:51.849Z,995.7
2023-04-28T20:17:35.563Z,994
2023-04-28T20:19:19.244Z,991.5
2023-04-28T20:21:02.950Z,988.9
2023-04-28T20:22:46.657Z,987.7
2023-04-28T20:24:30.344Z,985.6
2023-04-28T20:26:14.055Z,977.5
2023-04-28T20:27:57.771Z,976.8
2023-04-28T20:29:41.477Z,975
2023-04-28T20:31:25.166Z,975.2
2023-04-28T20:33:08.868Z,973.6
2023-04-28T20:34:52.565Z,973.1
2023-04-28T20:36:36.277Z,970.1
2023-04-28T20:38:19.968Z,970.7
2023-04-28T20:40:03.677Z,969.7
2023-04-28T20:41:47.382Z,968.2
2023-04-28T20:43:31.075Z,965.9
2023-04-28T20:45:14.784Z,965.7
2023-04-28T20:46:58.492Z,968.7
2023-04-28T20:48:42.187Z,968.9
2023-04-28T20:50:25.895Z,969.1
2023-04-28T20:52:09.592Z,965.3
2023-04-28T20:53:53.297Z,960.6
2023-04-28T20:55:37.006Z,960
2023-04-28T20:57:20.702Z,957.2
2023-04-28T20:59:04.408Z,955.3
2023-04-28T21:00:48.118Z,951.5
2023-04-28T21:02:31.811Z,947.8
2023-04-28T21:04:15.504Z,948.3
2023-04-28T21:05:59.209Z,950.3
2023-04-28T21:07:42.916Z,948.2
2023-04-28T21:09:26.616Z,949.9
2023-04-28T21:11:10.319Z,945.8
2023-04-28T21:12:54.017Z,941.9
2023-04-28T21:14:37.724Z,940.7
2023-04-28T21:16:21.428Z,939.7
2023-04-28T21:18:05.133Z,939.3
2023-04-28T21:19:48.824Z,941.3
2023-04-28T21:21:32.527Z,942.3
2023-04-28T21:23:16.242Z,942.8
2023-04-28T21:24:59.946Z,942.1
2023-04-28T21:26:43.682Z,942
2023-04-28T21:28:27.343Z,942.8
2023-04-28T21:30:11.055Z,942.9
2023-04-28T21:31:54.751Z,939.8
2023-04-28T21:33:38.471Z,936.8
2023-04-28T21:35:22.157Z,935.9
2023-04-28T21:37:05.858Z,937.3
2023-04-28T21:38:49.563Z,935.1
2023-04-28T21:40:33.260Z,935.3
2023-04-28T21:42:16.973Z,939.6
2023-04-28T21:44:00.679Z,937.3
2023-04-28T21:45:44.379Z,934.3
2023-04-28T21:47:28.068Z,939.8
2023-04-28T21:49:11.767Z,939.9
2023-04-28T21:50:55.485Z,945.2
2023-04-28T21:52:39.169Z,951.6
2023-04-28T21:54:22.875Z,951
2023-04-28T21:56:06.592Z,949.5
2023-04-28T21:57:50.283Z,949.7
2023-04-28T21:59:33.978Z,951.9
2023-04-28T22:01:17.681Z,951.5
2023-04-28T22:03:01.385Z,951.5
2023-04-28T22:04:45.090Z,951
2023-04-28T22:06:28.796Z,950.2
2023-04-28T22:08:12.511Z,949.5
2023-04-28T22:09:56.210Z,950.7